Skip Navigation Links Skip Navigation Links

Current Weather

Eureka, Nunavut

For information only: do not use for flight planning or navigation.
Latest weather
Observation time Monday, March 19, 2018 5:00 AM CDT
Local time Monday, March 19, 2018 5:57 AM CDT
Flight conditions Visual Meteorological Conditions
Wind direction East-Northeast (60°)
Wind speed 2 mph
Visibility 15 mi.
Present weather ice crystals
Sky condition
Ceiling 14,000 ft. broken clouds
Cloud layer scattered clouds 8,500 ft.
Cloud layer broken clouds 14,000 ft.
Temperature -40°F
Dewpoint -47°F
Altimeter 30.30 in.Hg
Derived measurements
Relative humidity 65%
Wind chill -40°F
Density altitude -7818 ft.
Sea-level pressure 30.31 in.Hg
METAR CWEU 191000Z 06002KT 15SM IC SCT085 BKN140 M40/M44 A3030 RMK AS3AC3 SLP263


Location code

InnerDrive.Weather 4.0.6615.0 Release CLR 4.0.30319.42000
Copyright ©2018 Inner Drive Technology. All rights reserved. Portions Copyright ©1986-2018 David Braverman.

Find weather

Site navigation

Skip Navigation Links

Place info

Page info

PayPal - The safer, easier way to pay online!

Return home.

Copyright ©2018 Inner Drive Technology. Purveyors of fine, hand-crafted computer software. Page printed 2018-03-19T10:57:26 UTC.